sensor_id;sensor_type;location;lat;lon;timestamp;pressure;altitude;pressure_sealevel;temperature;humidity
79729;BME280;69218;52.132;5.418;2023-08-07T00:01:55;101376.47;;;13.45;95.53
79729;BME280;69218;52.132;5.418;2023-08-07T00:04:21;101373.97;;;13.43;95.12
79729;BME280;69218;52.132;5.418;2023-08-07T00:06:48;101391.56;;;13.43;95.33
79729;BME280;69218;52.132;5.418;2023-08-07T00:09:14;101388.09;;;13.42;95.20
79729;BME280;69218;52.132;5.418;2023-08-07T00:11:41;101392.78;;;13.39;95.11
79729;BME280;69218;52.132;5.418;2023-08-07T00:14:07;101382.25;;;13.39;95.46
79729;BME280;69218;52.132;5.418;2023-08-07T00:16:34;101382.25;;;13.39;94.83
79729;BME280;69218;52.132;5.418;2023-08-07T00:19:02;101390.03;;;13.40;94.74
79729;BME280;69218;52.132;5.418;2023-08-07T00:21:28;101385.59;;;13.41;94.44
79729;BME280;69218;52.132;5.418;2023-08-07T00:23:55;101390.28;;;13.37;94.53
79729;BME280;69218;52.132;5.418;2023-08-07T00:26:21;101391.09;;;13.38;94.66
79729;BME280;69218;52.132;5.418;2023-08-07T00:28:48;101392.91;;;13.37;94.46
79729;BME280;69218;52.132;5.418;2023-08-07T00:31:15;101383.34;;;13.36;94.90
79729;BME280;69218;52.132;5.418;2023-08-07T00:33:41;101392.91;;;13.37;95.25
79729;BME280;69218;52.132;5.418;2023-08-07T00:36:08;101395.66;;;13.36;94.97
79729;BME280;69218;52.132;5.418;2023-08-07T00:38:34;101391.09;;;13.38;95.12
79729;BME280;69218;52.132;5.418;2023-08-07T00:41:01;101392.06;;;13.37;95.19
79729;BME280;69218;52.132;5.418;2023-08-07T00:43:27;101392.06;;;13.37;95.05
79729;BME280;69218;52.132;5.418;2023-08-07T00:45:54;101388.59;;;13.36;94.93
79729;BME280;69218;52.132;5.418;2023-08-07T00:48:21;101390.53;;;13.34;95.38
79729;BME280;69218;52.132;5.418;2023-08-07T00:50:48;101387.91;;;13.34;94.67
79729;BME280;69218;52.132;5.418;2023-08-07T00:53:15;101383.34;;;13.36;94.30
79729;BME280;69218;52.132;5.418;2023-08-07T00:55:42;101386.25;;;13.33;94.07
79729;BME280;69218;52.132;5.418;2023-08-07T00:58:09;101393.03;;;13.36;94.16
79729;BME280;69218;52.132;5.418;2023-08-07T01:00:36;101377.25;;;13.36;94.42
79729;BME280;69218;52.132;5.418;2023-08-07T01:03:05;101382.38;;;13.37;94.49
79729;BME280;69218;52.132;5.418;2023-08-07T01:05:34;101383.22;;;13.38;94.34
79729;BME280;69218;52.132;5.418;2023-08-07T01:08:01;101393.88;;;13.36;94.44
79729;BME280;69218;52.132;5.418;2023-08-07T01:13:17;101389.44;;;13.37;94.40
79729;BME280;69218;52.132;5.418;2023-08-07T01:15:46;101390.53;;;13.34;94.02
79729;BME280;69218;52.132;5.418;2023-08-07T01:18:15;101385.97;;;13.36;94.02
79729;BME280;69218;52.132;5.418;2023-08-07T01:20:42;101391.94;;;13.38;94.02
79729;BME280;69218;52.132;5.418;2023-08-07T01:23:08;101396.38;;;13.38;94.04
79729;BME280;69218;52.132;5.418;2023-08-07T01:25:35;101397.09;;;13.40;94.03
79729;BME280;69218;52.132;5.418;2023-08-07T01:28:25;101397.09;;;13.40;94.61
79729;BME280;69218;52.132;5.418;2023-08-07T01:30:55;101399.84;;;13.38;94.43
79729;BME280;69218;52.132;5.418;2023-08-07T01:33:32;101399.75;;;13.40;94.54
79729;BME280;69218;52.132;5.418;2023-08-07T01:36:02;101396.28;;;13.39;94.70
79729;BME280;69218;52.132;5.418;2023-08-07T01:38:32;101404.16;;;13.39;94.59
79729;BME280;69218;52.132;5.418;2023-08-07T01:41:00;101403.44;;;13.37;94.70
79729;BME280;69218;52.132;5.418;2023-08-07T01:43:27;101399.97;;;13.37;94.31
79729;BME280;69218;52.132;5.418;2023-08-07T01:45:53;101402.47;;;13.38;94.66
79729;BME280;69218;52.132;5.418;2023-08-07T01:48:20;101406.06;;;13.37;94.54
79729;BME280;69218;52.132;5.418;2023-08-07T01:50:49;101408.47;;;13.40;94.79
79729;BME280;69218;52.132;5.418;2023-08-07T01:53:16;101396.97;;;13.41;94.35
79729;BME280;69218;52.132;5.418;2023-08-07T01:55:42;101399.34;;;13.44;94.43
79729;BME280;69218;52.132;5.418;2023-08-07T01:58:09;101405.56;;;13.43;94.36
79729;BME280;69218;52.132;5.418;2023-08-07T02:00:35;101403.91;;;13.42;94.50
79729;BME280;69218;52.132;5.418;2023-08-07T02:03:02;101406.53;;;13.42;94.16
79729;BME280;69218;52.132;5.418;2023-08-07T02:05:28;101410.13;;;13.41;94.24
79729;BME280;69218;52.132;5.418;2023-08-07T02:07:55;101410.97;;;13.42;94.22
79729;BME280;69218;52.132;5.418;2023-08-07T02:10:23;101418.03;;;13.41;93.82
79729;BME280;69218;52.132;5.418;2023-08-07T02:12:49;101410.97;;;13.42;93.68
79729;BME280;69218;52.132;5.418;2023-08-07T02:15:16;101417.06;;;13.42;93.67
79729;BME280;69218;52.132;5.418;2023-08-07T02:17:43;101418.75;;;13.43;93.66
79729;BME280;69218;52.132;5.418;2023-08-07T02:20:10;101413.47;;;13.43;93.84
79729;BME280;69218;52.132;5.418;2023-08-07T02:22:37;101429.03;;;13.46;94.00
79729;BME280;69218;52.132;5.418;2023-08-07T02:25:03;101424.59;;;13.47;94.33
79729;BME280;69218;52.132;5.418;2023-08-07T02:27:30;101427.34;;;13.45;94.83
79729;BME280;69218;52.132;5.418;2023-08-07T02:29:56;101422.34;;;13.42;94.22
79729;BME280;69218;52.132;5.418;2023-08-07T02:32:23;101422.47;;;13.41;94.53
79729;BME280;69218;52.132;5.418;2023-08-07T02:34:50;101413.84;;;13.39;94.50
79729;BME280;69218;52.132;5.418;2023-08-07T02:37:16;101421.38;;;13.43;94.67
79729;BME280;69218;52.132;5.418;2023-08-07T02:39:43;101424.97;;;13.42;94.78
79729;BME280;69218;52.132;5.418;2023-08-07T02:42:09;101421.38;;;13.43;94.77
79729;BME280;69218;52.132;5.418;2023-08-07T02:44:36;101431.06;;;13.43;94.77
79729;BME280;69218;52.132;5.418;2023-08-07T02:47:03;101431.69;;;13.46;95.12
79729;BME280;69218;52.132;5.418;2023-08-07T02:49:29;101429.88;;;13.47;94.98
79729;BME280;69218;52.132;5.418;2023-08-07T02:51:56;101425.44;;;13.48;95.06
79729;BME280;69218;52.132;5.418;2023-08-07T02:54:22;101425.53;;;13.46;94.69
79729;BME280;69218;52.132;5.418;2023-08-07T02:56:49;101421.97;;;13.47;94.41
79729;BME280;69218;52.132;5.418;2023-08-07T02:59:16;101424.72;;;13.45;94.88
79729;BME280;69218;52.132;5.418;2023-08-07T03:01:44;101426.63;;;13.43;94.97
79729;BME280;69218;52.132;5.418;2023-08-07T03:04:10;101421.50;;;13.42;94.48
79729;BME280;69218;52.132;5.418;2023-08-07T03:06:37;101425.81;;;13.43;95.13
79729;BME280;69218;52.132;5.418;2023-08-07T03:09:03;101424.84;;;13.44;95.01
79729;BME280;69218;52.132;5.418;2023-08-07T03:11:30;101416.38;;;13.40;95.10
79729;BME280;69218;52.132;5.418;2023-08-07T03:13:56;101419.25;;;13.37;94.87
79729;BME280;69218;52.132;5.418;2023-08-07T03:16:23;101413.28;;;13.35;95.03
79729;BME280;69218;52.132;5.418;2023-08-07T03:18:50;101410.50;;;13.37;95.07
79729;BME280;69218;52.132;5.418;2023-08-07T03:21:16;101410.50;;;13.37;95.09
79729;BME280;69218;52.132;5.418;2023-08-07T03:23:43;101410.78;;;13.34;94.98
79729;BME280;69218;52.132;5.418;2023-08-07T03:26:11;101411.75;;;13.33;94.77
79729;BME280;69218;52.132;5.418;2023-08-07T03:28:44;101405.75;;;13.31;94.82
79729;BME280;69218;52.132;5.418;2023-08-07T03:31:13;101403.94;;;13.31;95.03
79729;BME280;69218;52.132;5.418;2023-08-07T03:33:39;101414.47;;;13.31;95.07
79729;BME280;69218;52.132;5.418;2023-08-07T03:36:06;101413.53;;;13.32;94.56
79729;BME280;69218;52.132;5.418;2023-08-07T03:38:33;101409.22;;;13.31;94.93
79729;BME280;69218;52.132;5.418;2023-08-07T03:40:59;101408.28;;;13.32;95.41
79729;BME280;69218;52.132;5.418;2023-08-07T03:43:26;101411.84;;;13.31;94.97
79729;BME280;69218;52.132;5.418;2023-08-07T03:45:56;101399.63;;;13.30;95.33
79729;BME280;69218;52.132;5.418;2023-08-07T03:48:29;101402.13;;;13.32;95.40
79729;BME280;69218;52.132;5.418;2023-08-07T03:51:05;101413.41;;;13.34;95.37
79729;BME280;69218;52.132;5.418;2023-08-07T03:53:32;101403.84;;;13.33;95.20
79729;BME280;69218;52.132;5.418;2023-08-07T03:55:59;101404.66;;;13.33;95.41
79729;BME280;69218;52.132;5.418;2023-08-07T03:58:25;101413.41;;;13.34;95.40
79729;BME280;69218;52.132;5.418;2023-08-07T04:00:52;101413.28;;;13.35;95.30
79729;BME280;69218;52.132;5.418;2023-08-07T04:03:22;101411.59;;;13.34;94.73
79729;BME280;69218;52.132;5.418;2023-08-07T04:05:52;101417.44;;;13.38;95.48
79729;BME280;69218;52.132;5.418;2023-08-07T04:08:20;101417.34;;;13.39;95.43
79729;BME280;69218;52.132;5.418;2023-08-07T04:11:03;101412.91;;;13.40;95.42
79729;BME280;69218;52.132;5.418;2023-08-07T04:13:31;101413.00;;;13.38;95.49
79729;BME280;69218;52.132;5.418;2023-08-07T04:15:58;101418.03;;;13.41;95.66
79729;BME280;69218;52.132;5.418;2023-08-07T04:18:24;101423.31;;;13.41;95.26
79729;BME280;69218;52.132;5.418;2023-08-07T04:20:55;101414.56;;;13.41;95.63
79729;BME280;69218;52.132;5.418;2023-08-07T04:23:22;101418.88;;;13.42;95.95
79729;BME280;69218;52.132;5.418;2023-08-07T04:25:49;101423.44;;;13.40;95.52
79729;BME280;69218;52.132;5.418;2023-08-07T04:28:16;101423.31;;;13.41;95.51
79729;BME280;69218;52.132;5.418;2023-08-07T04:30:44;101420.53;;;13.43;95.73
79729;BME280;69218;52.132;5.418;2023-08-07T04:33:11;101428.44;;;13.43;95.98
79729;BME280;69218;52.132;5.418;2023-08-07T04:35:39;101426.78;;;13.42;95.77
79729;BME280;69218;52.132;5.418;2023-08-07T04:38:06;101434.53;;;13.43;95.95
79729;BME280;69218;52.132;5.418;2023-08-07T04:40:32;101440.66;;;13.44;95.74
79729;BME280;69218;52.132;5.418;2023-08-07T04:42:59;101441.34;;;13.46;95.91
79729;BME280;69218;52.132;5.418;2023-08-07T04:45:25;101447.47;;;13.46;96.01
79729;BME280;69218;52.132;5.418;2023-08-07T04:47:52;101452.47;;;13.50;96.40
79729;BME280;69218;52.132;5.418;2023-08-07T04:50:18;101457.75;;;13.50;96.16
79729;BME280;69218;52.132;5.418;2023-08-07T04:52:45;101453.56;;;13.47;96.00
79729;BME280;69218;52.132;5.418;2023-08-07T04:55:11;101457.88;;;13.48;95.96
79729;BME280;69218;52.132;5.418;2023-08-07T04:57:38;101454.41;;;13.48;95.50
79729;BME280;69218;52.132;5.418;2023-08-07T05:00:05;101459.41;;;13.51;96.28
79729;BME280;69218;52.132;5.418;2023-08-07T05:02:32;101460.25;;;13.51;96.22
79729;BME280;69218;52.132;5.418;2023-08-07T05:04:59;101462.75;;;13.53;96.21
79729;BME280;69218;52.132;5.418;2023-08-07T05:07:25;101467.78;;;13.56;96.15
79729;BME280;69218;52.132;5.418;2023-08-07T05:09:52;101474.72;;;13.57;96.53
79729;BME280;69218;52.132;5.418;2023-08-07T05:12:18;101480.69;;;13.59;96.19
79729;BME280;69218;52.132;5.418;2023-08-07T05:14:45;101496.50;;;13.59;96.25
79729;BME280;69218;52.132;5.418;2023-08-07T05:17:11;101494.69;;;13.59;96.29
79729;BME280;69218;52.132;5.418;2023-08-07T05:19:39;101493.03;;;13.58;96.44
79729;BME280;69218;52.132;5.418;2023-08-07T05:22:05;101505.38;;;13.58;96.57
79729;BME280;69218;52.132;5.418;2023-08-07T05:24:32;101494.69;;;13.59;96.41
79729;BME280;69218;52.132;5.418;2023-08-07T05:27:06;101508.59;;;13.61;96.39
79729;BME280;69218;52.132;5.418;2023-08-07T05:29:35;101493.63;;;13.62;96.19
79729;BME280;69218;52.132;5.418;2023-08-07T05:32:13;101487.53;;;13.61;96.34
79729;BME280;69218;52.132;5.418;2023-08-07T05:34:41;101496.25;;;13.62;96.34
79729;BME280;69218;52.132;5.418;2023-08-07T05:37:07;101500.56;;;13.63;96.23
79729;BME280;69218;52.132;5.418;2023-08-07T05:39:35;101505.56;;;13.66;96.32
79729;BME280;69218;52.132;5.418;2023-08-07T05:42:02;101508.94;;;13.68;96.32
79729;BME280;69218;52.132;5.418;2023-08-07T05:44:29;101512.97;;;13.72;96.33
79729;BME280;69218;52.132;5.418;2023-08-07T05:46:56;101512.13;;;13.71;95.64
79729;BME280;69218;52.132;5.418;2023-08-07T05:49:22;101519.09;;;13.72;95.55
79729;BME280;69218;52.132;5.418;2023-08-07T05:51:51;101520.75;;;13.73;95.59
79729;BME280;69218;52.132;5.418;2023-08-07T05:54:21;101516.31;;;13.74;95.45
79729;BME280;69218;52.132;5.418;2023-08-07T05:56:48;101517.03;;;13.76;95.22
79729;BME280;69218;52.132;5.418;2023-08-07T05:59:14;101508.03;;;13.79;95.50
79729;BME280;69218;52.132;5.418;2023-08-07T06:01:42;101524.69;;;13.79;94.74
79729;BME280;69218;52.132;5.418;2023-08-07T06:04:08;101522.75;;;13.81;95.36
79729;BME280;69218;52.132;5.418;2023-08-07T06:06:35;101524.44;;;13.82;94.78
79729;BME280;69218;52.132;5.418;2023-08-07T06:09:02;101527.91;;;13.83;94.71
79729;BME280;69218;52.132;5.418;2023-08-07T06:11:30;101527.53;;;13.87;94.25
79729;BME280;69218;52.132;5.418;2023-08-07T06:13:56;101526.19;;;13.93;94.38
79729;BME280;69218;52.132;5.418;2023-08-07T06:16:23;101525.94;;;13.96;93.87
79729;BME280;69218;52.132;5.418;2023-08-07T06:18:51;101533.31;;;14.02;93.90
79729;BME280;69218;52.132;5.418;2023-08-07T06:21:17;101533.91;;;14.06;94.13
79729;BME280;69218;52.132;5.418;2023-08-07T06:23:47;101543.13;;;14.11;93.84
79729;BME280;69218;52.132;5.418;2023-08-07T06:26:13;101535.41;;;14.19;94.10
79729;BME280;69218;52.132;5.418;2023-08-07T06:28:41;101536.56;;;14.26;94.01
79729;BME280;69218;52.132;5.418;2023-08-07T06:31:09;101529.66;;;14.35;93.42
79729;BME280;69218;52.132;5.418;2023-08-07T06:33:36;101541.03;;;14.47;93.59
79729;BME280;69218;52.132;5.418;2023-08-07T06:36:04;101544.69;;;14.55;93.12
79729;BME280;69218;52.132;5.418;2023-08-07T06:38:31;101551.94;;;14.63;93.16
79729;BME280;69218;52.132;5.418;2023-08-07T06:40:57;101546.97;;;14.70;93.15
79729;BME280;69218;52.132;5.418;2023-08-07T06:43:24;101555.88;;;14.69;92.81
79729;BME280;69218;52.132;5.418;2023-08-07T06:45:51;101552.69;;;14.75;92.25
79729;BME280;69218;52.132;5.418;2023-08-07T06:48:18;101557.47;;;14.81;92.14
79729;BME280;69218;52.132;5.418;2023-08-07T06:50:50;101559.97;;;14.82;91.54
79729;BME280;69218;52.132;5.418;2023-08-07T06:53:18;101562.22;;;14.87;91.95
79729;BME280;69218;52.132;5.418;2023-08-07T06:55:45;101551.50;;;14.89;90.66
79729;BME280;69218;52.132;5.418;2023-08-07T06:58:12;101558.19;;;14.93;90.85
79729;BME280;69218;52.132;5.418;2023-08-07T07:00:39;101561.34;;;15.17;90.67
79729;BME280;69218;52.132;5.418;2023-08-07T07:03:06;101566.94;;;15.33;89.04
79729;BME280;69218;52.132;5.418;2023-08-07T07:05:34;101562.53;;;15.44;90.52
79729;BME280;69218;52.132;5.418;2023-08-07T07:08:01;101563.75;;;15.39;89.36
79729;BME280;69218;52.132;5.418;2023-08-07T07:10:27;101575.44;;;15.37;89.18
79729;BME280;69218;52.132;5.418;2023-08-07T07:12:57;101573.50;;;15.39;89.79
79729;BME280;69218;52.132;5.418;2023-08-07T07:15:23;101580.28;;;15.32;88.74
79729;BME280;69218;52.132;5.418;2023-08-07T07:17:50;101592.38;;;15.25;88.84
79729;BME280;69218;52.132;5.418;2023-08-07T07:20:16;101592.91;;;15.19;87.81
79729;BME280;69218;52.132;5.418;2023-08-07T07:22:43;101597.88;;;15.12;88.29
79729;BME280;69218;52.132;5.418;2023-08-07T07:25:09;101608.72;;;15.09;89.84
79729;BME280;69218;52.132;5.418;2023-08-07T07:27:36;101607.88;;;15.08;89.19
79729;BME280;69218;52.132;5.418;2023-08-07T07:30:03;101614.88;;;15.29;88.83
79729;BME280;69218;52.132;5.418;2023-08-07T07:32:30;101604.31;;;15.29;87.11
79729;BME280;69218;52.132;5.418;2023-08-07T07:34:56;101609.78;;;15.37;86.93
79729;BME280;69218;52.132;5.418;2023-08-07T07:37:23;101612.25;;;15.69;88.08
79729;BME280;69218;52.132;5.418;2023-08-07T07:39:49;101610.34;;;16.00;87.46
79729;BME280;69218;52.132;5.418;2023-08-07T07:42:16;101619.41;;;16.17;86.98
79729;BME280;69218;52.132;5.418;2023-08-07T07:44:42;101623.53;;;16.48;86.08
79729;BME280;69218;52.132;5.418;2023-08-07T07:47:09;101621.31;;;16.63;84.37
79729;BME280;69218;52.132;5.418;2023-08-07T07:49:39;101625.91;;;16.61;85.67
79729;BME280;69218;52.132;5.418;2023-08-07T07:52:06;101622.53;;;16.69;85.86
79729;BME280;69218;52.132;5.418;2023-08-07T07:54:34;101625.09;;;16.51;84.42
79729;BME280;69218;52.132;5.418;2023-08-07T07:57:01;101633.72;;;16.34;84.71
79729;BME280;69218;52.132;5.418;2023-08-07T07:59:27;101631.38;;;16.11;86.01
79729;BME280;69218;52.132;5.418;2023-08-07T08:01:54;101636.78;;;15.81;84.28
79729;BME280;69218;52.132;5.418;2023-08-07T08:04:21;101638.97;;;15.66;84.92
79729;BME280;69218;52.132;5.418;2023-08-07T08:06:48;101648.13;;;15.62;85.88
79729;BME280;69218;52.132;5.418;2023-08-07T08:09:15;101649.94;;;15.61;85.94
79729;BME280;69218;52.132;5.418;2023-08-07T08:11:42;101647.81;;;15.55;84.72
79729;BME280;69218;52.132;5.418;2023-08-07T08:14:08;101658.50;;;15.54;85.96
79729;BME280;69218;52.132;5.418;2023-08-07T08:16:35;101656.84;;;15.53;86.51
79729;BME280;69218;52.132;5.418;2023-08-07T08:19:02;101661.13;;;15.44;85.59
79729;BME280;69218;52.132;5.418;2023-08-07T08:21:28;101665.59;;;15.53;87.11
79729;BME280;69218;52.132;5.418;2023-08-07T08:23:56;101667.72;;;15.59;86.04
79729;BME280;69218;52.132;5.418;2023-08-07T08:26:23;101666.75;;;15.60;84.94
79729;BME280;69218;52.132;5.418;2023-08-07T08:28:49;101669.28;;;15.62;85.98
79729;BME280;69218;52.132;5.418;2023-08-07T08:31:16;101667.00;;;15.88;85.79
79729;BME280;69218;52.132;5.418;2023-08-07T08:33:42;101672.44;;;16.06;84.56
79729;BME280;69218;52.132;5.418;2023-08-07T08:36:09;101675.78;;;16.17;83.16
79729;BME280;69218;52.132;5.418;2023-08-07T08:38:35;101667.44;;;16.32;85.08
79729;BME280;69218;52.132;5.418;2023-08-07T08:41:02;101673.72;;;16.50;83.17
79729;BME280;69218;52.132;5.418;2023-08-07T08:43:33;101680.56;;;16.72;82.92
79729;BME280;69218;52.132;5.418;2023-08-07T08:46:01;101672.41;;;17.02;82.41
79729;BME280;69218;52.132;5.418;2023-08-07T08:48:29;101669.69;;;17.22;79.19
79729;BME280;69218;52.132;5.418;2023-08-07T08:50:58;101668.63;;;17.05;77.66
79729;BME280;69218;52.132;5.418;2023-08-07T08:53:25;101673.97;;;16.76;78.86
79729;BME280;69218;52.132;5.418;2023-08-07T08:55:51;101687.63;;;16.52;77.24
79729;BME280;69218;52.132;5.418;2023-08-07T08:58:19;101701.00;;;16.41;79.69
79729;BME280;69218;52.132;5.418;2023-08-07T09:00:48;101694.75;;;16.23;78.65
79729;BME280;69218;52.132;5.418;2023-08-07T09:03:17;101703.47;;;16.04;76.48
79729;BME280;69218;52.132;5.418;2023-08-07T09:05:46;101702.63;;;16.03;77.61
79729;BME280;69218;52.132;5.418;2023-08-07T09:08:13;101702.25;;;16.08;79.35
79729;BME280;69218;52.132;5.418;2023-08-07T09:10:40;101696.81;;;16.19;78.24
79729;BME280;69218;52.132;5.418;2023-08-07T09:13:10;101704.91;;;16.37;80.58
79729;BME280;69218;52.132;5.418;2023-08-07T09:15:40;101708.53;;;16.45;80.55
79729;BME280;69218;52.132;5.418;2023-08-07T09:18:14;101705.34;;;16.52;78.61
79729;BME280;69218;52.132;5.418;2023-08-07T09:20:42;101707.72;;;16.64;77.71
79729;BME280;69218;52.132;5.418;2023-08-07T09:23:09;101710.63;;;16.81;76.56
79729;BME280;69218;52.132;5.418;2023-08-07T09:25:35;101718.13;;;17.05;75.77
79729;BME280;69218;52.132;5.418;2023-08-07T09:28:04;101729.28;;;17.08;75.31
79729;BME280;69218;52.132;5.418;2023-08-07T09:30:32;101722.59;;;17.04;72.45
79729;BME280;69218;52.132;5.418;2023-08-07T09:33:00;101725.22;;;17.14;73.09
79729;BME280;69218;52.132;5.418;2023-08-07T09:35:29;101720.56;;;17.35;74.90
79729;BME280;69218;52.132;5.418;2023-08-07T09:37:59;101720.09;;;17.40;77.04
79729;BME280;69218;52.132;5.418;2023-08-07T09:40:25;101719.69;;;17.44;75.34
79729;BME280;69218;52.132;5.418;2023-08-07T09:42:53;101713.59;;;17.34;71.78
79729;BME280;69218;52.132;5.418;2023-08-07T09:47:56;101722.53;;;17.23;76.78
79729;BME280;69218;52.132;5.418;2023-08-07T09:50:24;101723.94;;;17.18;73.74
79729;BME280;69218;52.132;5.418;2023-08-07T09:52:51;101739.97;;;17.26;75.37
79729;BME280;69218;52.132;5.418;2023-08-07T09:55:17;101730.59;;;17.32;76.95
79729;BME280;69218;52.132;5.418;2023-08-07T09:57:45;101740.00;;;17.53;75.13
79729;BME280;69218;52.132;5.418;2023-08-07T10:00:12;101741.78;;;17.72;71.92
79729;BME280;69218;52.132;5.418;2023-08-07T10:02:42;101748.75;;;17.73;73.66
79729;BME280;69218;52.132;5.418;2023-08-07T10:05:10;101757.84;;;17.71;72.19
79729;BME280;69218;52.132;5.418;2023-08-07T10:07:37;101757.25;;;17.67;73.07
79729;BME280;69218;52.132;5.418;2023-08-07T10:10:05;101764.84;;;17.52;72.58
79729;BME280;69218;52.132;5.418;2023-08-07T10:12:33;101764.63;;;17.36;73.20
79729;BME280;69218;52.132;5.418;2023-08-07T10:15:00;101762.97;;;17.25;72.68
79729;BME280;69218;52.132;5.418;2023-08-07T10:17:27;101760.50;;;17.14;73.56
79729;BME280;69218;52.132;5.418;2023-08-07T10:19:54;101758.78;;;17.33;73.57
79729;BME280;69218;52.132;5.418;2023-08-07T10:22:23;101766.00;;;17.50;73.99
79729;BME280;69218;52.132;5.418;2023-08-07T10:24:52;101759.22;;;17.75;72.30
79729;BME280;69218;52.132;5.418;2023-08-07T10:27:21;101754.75;;;17.75;72.99
79729;BME280;69218;52.132;5.418;2023-08-07T10:29:50;101752.94;;;17.76;72.76
79729;BME280;69218;52.132;5.418;2023-08-07T10:32:19;101756.53;;;17.84;72.62
79729;BME280;69218;52.132;5.418;2023-08-07T10:34:46;101756.97;;;18.07;73.44
79729;BME280;69218;52.132;5.418;2023-08-07T10:40:03;101748.22;;;18.78;70.32
79729;BME280;69218;52.132;5.418;2023-08-07T10:45:27;101755.44;;;18.32;70.36
79729;BME280;69218;52.132;5.418;2023-08-07T10:50:31;101760.44;;;18.35;71.00
79729;BME280;69218;52.132;5.418;2023-08-07T10:53:02;101768.47;;;18.44;70.43
79729;BME280;69218;52.132;5.418;2023-08-07T10:55:46;101766.50;;;18.81;69.64
79729;BME280;69218;52.132;5.418;2023-08-07T10:58:36;101762.50;;;19.21;71.04
79729;BME280;69218;52.132;5.418;2023-08-07T11:06:36;101776.13;;;19.18;68.32
79729;BME280;69218;52.132;5.418;2023-08-07T11:09:03;101770.38;;;19.05;68.52
79729;BME280;69218;52.132;5.418;2023-08-07T11:11:39;101779.56;;;18.57;66.36
79729;BME280;69218;52.132;5.418;2023-08-07T11:14:15;101789.72;;;18.61;68.24
79729;BME280;69218;52.132;5.418;2023-08-07T11:16:42;101785.75;;;18.75;67.73
79729;BME280;69218;52.132;5.418;2023-08-07T11:19:09;101780.72;;;18.72;68.61
79729;BME280;69218;52.132;5.418;2023-08-07T11:21:36;101786.88;;;18.73;65.42
79729;BME280;69218;52.132;5.418;2023-08-07T11:24:03;101790.41;;;18.63;66.67
79729;BME280;69218;52.132;5.418;2023-08-07T11:26:30;101791.69;;;18.59;67.82
79729;BME280;69218;52.132;5.418;2023-08-07T11:28:57;101793.56;;;18.77;65.66
79729;BME280;69218;52.132;5.418;2023-08-07T11:31:24;101786.59;;;19.02;65.33
79729;BME280;69218;52.132;5.418;2023-08-07T11:33:52;101792.13;;;19.26;66.55
79729;BME280;69218;52.132;5.418;2023-08-07T11:36:22;101785.75;;;19.45;63.94
79729;BME280;69218;52.132;5.418;2023-08-07T11:38:48;101786.59;;;19.45;64.90
79729;BME280;69218;52.132;5.418;2023-08-07T11:41:17;101785.72;;;19.63;62.81
79729;BME280;69218;52.132;5.418;2023-08-07T11:43:47;101787.34;;;19.90;65.71
79729;BME280;69218;52.132;5.418;2023-08-07T11:46:15;101793.75;;;20.05;62.51
79729;BME280;69218;52.132;5.418;2023-08-07T11:48:43;101783.91;;;19.97;62.11
79729;BME280;69218;52.132;5.418;2023-08-07T11:51:11;101793.09;;;20.11;61.34
79729;BME280;69218;52.132;5.418;2023-08-07T11:53:39;101789.97;;;20.16;61.05
79729;BME280;69218;52.132;5.418;2023-08-07T11:56:12;101790.19;;;20.39;63.71
79729;BME280;69218;52.132;5.418;2023-08-07T11:58:47;101779.63;;;20.21;58.22
79729;BME280;69218;52.132;5.418;2023-08-07T12:01:19;101778.69;;;20.30;60.09
79729;BME280;69218;52.132;5.418;2023-08-07T12:04:08;101775.09;;;20.55;62.61
79729;BME280;69218;52.132;5.418;2023-08-07T12:06:36;101786.25;;;20.92;60.54
79729;BME280;69218;52.132;5.418;2023-08-07T12:09:05;101773.63;;;20.94;59.44
79729;BME280;69218;52.132;5.418;2023-08-07T12:11:38;101772.09;;;20.99;58.54
79729;BME280;69218;52.132;5.418;2023-08-07T12:14:05;101771.44;;;20.81;53.89
79729;BME280;69218;52.132;5.418;2023-08-07T12:16:33;101767.44;;;21.01;60.31
79729;BME280;69218;52.132;5.418;2023-08-07T12:19:01;101773.59;;;21.18;55.37
79729;BME280;69218;52.132;5.418;2023-08-07T12:21:28;101771.44;;;21.30;56.65
79729;BME280;69218;52.132;5.418;2023-08-07T12:23:55;101773.09;;;21.31;56.72
79729;BME280;69218;52.132;5.418;2023-08-07T12:26:22;101776.28;;;21.02;54.60
79729;BME280;69218;52.132;5.418;2023-08-07T12:28:49;101781.09;;;20.82;54.09
79729;BME280;69218;52.132;5.418;2023-08-07T12:31:17;101780.41;;;21.21;56.12
79729;BME280;69218;52.132;5.418;2023-08-07T12:33:44;101794.44;;;21.31;55.63
79729;BME280;69218;52.132;5.418;2023-08-07T12:36:10;101778.75;;;21.28;55.71
79729;BME280;69218;52.132;5.418;2023-08-07T12:38:42;101778.78;;;21.03;53.09
79729;BME280;69218;52.132;5.418;2023-08-07T12:41:09;101782.94;;;20.98;51.20
79729;BME280;69218;52.132;5.418;2023-08-07T12:43:55;101781.75;;;21.25;55.56
79729;BME280;69218;52.132;5.418;2023-08-07T12:46:22;101784.09;;;21.36;50.87
79729;BME280;69218;52.132;5.418;2023-08-07T12:48:51;101784.78;;;21.30;52.50
79729;BME280;69218;52.132;5.418;2023-08-07T12:51:17;101783.69;;;21.55;51.57
79729;BME280;69218;52.132;5.418;2023-08-07T12:53:44;101780.38;;;21.53;50.19
79729;BME280;69218;52.132;5.418;2023-08-07T12:56:11;101772.72;;;21.58;49.58
79729;BME280;69218;52.132;5.418;2023-08-07T12:58:38;101775.13;;;21.76;49.38
79729;BME280;69218;52.132;5.418;2023-08-07T13:01:09;101770.44;;;21.86;52.59
79729;BME280;69218;52.132;5.418;2023-08-07T13:03:35;101774.81;;;21.79;48.09
79729;BME280;69218;52.132;5.418;2023-08-07T13:06:02;101779.56;;;21.45;47.86
79729;BME280;69218;52.132;5.418;2023-08-07T13:08:31;101787.59;;;21.12;51.02
79729;BME280;69218;52.132;5.418;2023-08-07T13:10:59;101787.75;;;21.35;50.30
79729;BME280;69218;52.132;5.418;2023-08-07T13:13:26;101782.25;;;21.45;51.87